createdAt,value
2023-03-10T00:00:16.226Z,14.16
2023-03-10T00:02:49.434Z,14.50
2023-03-10T00:05:17.797Z,14.33
2023-03-10T00:07:44.775Z,14.18
2023-03-10T00:10:15.130Z,14.26
2023-03-10T00:12:41.935Z,14.79
2023-03-10T00:15:09.910Z,15.12
2023-03-10T00:17:37.417Z,15.12
2023-03-10T00:20:11.577Z,15.20
2023-03-10T00:22:41.974Z,14.64
2023-03-10T00:25:10.385Z,14.84
2023-03-10T00:27:37.082Z,14.86
2023-03-10T00:30:05.026Z,14.78
2023-03-10T00:32:31.722Z,14.82
2023-03-10T00:34:58.352Z,14.02
2023-03-10T00:37:24.979Z,14.76
2023-03-10T00:39:52.668Z,14.56
2023-03-10T00:42:19.939Z,14.29
2023-03-10T00:44:47.247Z,14.05
2023-03-10T00:47:13.903Z,13.83
2023-03-10T00:49:40.530Z,12.88
2023-03-10T00:52:07.196Z,13.91
2023-03-10T00:54:33.849Z,13.79
2023-03-10T00:57:00.473Z,14.20
2023-03-10T00:59:28.365Z,13.79
2023-03-10T01:01:56.212Z,14.15
2023-03-10T01:04:23.058Z,14.17
2023-03-10T01:06:49.781Z,14.30
2023-03-10T01:09:18.054Z,14.25
2023-03-10T01:11:44.869Z,14.09
2023-03-10T01:14:13.624Z,14.16
2023-03-10T01:16:40.353Z,14.18
2023-03-10T01:19:07.008Z,14.32
2023-03-10T01:21:36.715Z,13.48
2023-03-10T01:24:04.856Z,13.84
2023-03-10T01:26:31.735Z,13.41
2023-03-10T01:28:58.573Z,13.76
2023-03-10T01:31:25.306Z,12.63
2023-03-10T01:33:51.997Z,11.97
2023-03-10T01:36:26.243Z,12.77
2023-03-10T01:38:55.348Z,13.38
2023-03-10T01:41:23.320Z,13.47
2023-03-10T01:43:52.541Z,13.45
2023-03-10T01:46:28.199Z,13.56
2023-03-10T01:49:06.158Z,13.11
2023-03-10T01:51:35.254Z,13.67
2023-03-10T01:54:05.666Z,13.81
2023-03-10T01:56:32.419Z,13.78
2023-03-10T01:58:59.371Z,13.78
2023-03-10T02:01:26.060Z,13.57
2023-03-10T02:04:00.340Z,13.38
2023-03-10T02:06:27.740Z,13.60
2023-03-10T02:08:58.540Z,12.72
2023-03-10T02:11:25.605Z,12.76
2023-03-10T02:13:53.075Z,13.07
2023-03-10T02:16:20.034Z,13.40
2023-03-10T02:18:47.849Z,13.45
2023-03-10T02:21:14.420Z,13.54
2023-03-10T02:24:00.984Z,13.57
2023-03-10T02:26:43.407Z,13.66
2023-03-10T02:29:17.877Z,13.75
2023-03-10T02:31:45.829Z,13.75
2023-03-10T02:34:13.080Z,13.79
2023-03-10T02:36:39.762Z,13.73
2023-03-10T02:39:06.375Z,13.82
2023-03-10T02:41:38.742Z,13.58
2023-03-10T02:44:09.740Z,12.86
2023-03-10T02:46:36.706Z,13.27
2023-03-10T02:49:06.166Z,13.31
2023-03-10T02:51:39.391Z,13.36
2023-03-10T02:54:08.252Z,13.57
2023-03-10T02:56:35.829Z,13.42
2023-03-10T02:59:04.278Z,13.38
2023-03-10T03:01:31.963Z,12.48
2023-03-10T03:03:59.610Z,11.97
2023-03-10T03:06:26.441Z,12.37
2023-03-10T03:08:53.103Z,12.82
2023-03-10T03:11:20.155Z,13.11
2023-03-10T03:13:46.870Z,13.37
2023-03-10T03:16:13.830Z,13.24
2023-03-10T03:18:40.895Z,13.39
2023-03-10T03:21:15.842Z,13.28
2023-03-10T03:23:42.893Z,13.28
2023-03-10T03:26:22.079Z,13.08
2023-03-10T03:28:49.027Z,13.37
2023-03-10T03:31:19.874Z,13.08
2023-03-10T03:33:46.945Z,12.94
2023-03-10T03:36:13.791Z,13.39
2023-03-10T03:38:40.855Z,13.55
2023-03-10T03:41:07.992Z,13.63
2023-03-10T03:43:34.654Z,13.73
2023-03-10T03:46:02.230Z,13.69
2023-03-10T03:48:28.952Z,13.75
2023-03-10T03:50:55.587Z,13.70
2023-03-10T03:53:22.236Z,13.76
2023-03-10T03:55:49.991Z,13.58
2023-03-10T03:58:16.901Z,13.43
2023-03-10T04:00:43.539Z,13.43
2023-03-10T04:03:10.209Z,13.51
2023-03-10T04:05:36.930Z,13.56
2023-03-10T04:08:03.924Z,13.65
2023-03-10T04:10:31.379Z,13.71
2023-03-10T04:12:58.708Z,13.63
2023-03-10T04:15:25.749Z,13.79
2023-03-10T04:17:52.358Z,13.79
2023-03-10T04:20:19.119Z,13.73
2023-03-10T04:22:45.836Z,13.68
2023-03-10T04:25:12.733Z,13.73
2023-03-10T04:27:39.415Z,13.69
2023-03-10T04:30:07.265Z,13.73
2023-03-10T04:32:34.205Z,13.77
2023-03-10T04:35:02.278Z,13.67
2023-03-10T04:37:29.068Z,13.58
2023-03-10T04:39:57.165Z,13.65
2023-03-10T04:42:24.220Z,13.73
2023-03-10T04:44:52.101Z,13.70
2023-03-10T04:47:18.768Z,13.63
2023-03-10T04:49:45.848Z,13.63
2023-03-10T04:52:12.733Z,12.38
2023-03-10T04:54:39.444Z,12.45
2023-03-10T04:57:06.096Z,12.97
2023-03-10T04:59:36.334Z,12.75
2023-03-10T05:02:15.636Z,13.06
2023-03-10T05:04:43.972Z,13.30
2023-03-10T05:07:10.673Z,13.19
2023-03-10T05:09:38.094Z,13.11
2023-03-10T05:12:06.630Z,13.20
2023-03-10T05:14:33.237Z,13.20
2023-03-10T05:16:59.790Z,13.29
2023-03-10T05:19:26.524Z,13.36
2023-03-10T05:21:53.737Z,13.44
2023-03-10T05:24:29.366Z,13.39
2023-03-10T05:26:56.228Z,13.40
2023-03-10T05:29:26.579Z,13.48
2023-03-10T05:31:53.260Z,13.49
2023-03-10T05:34:19.903Z,13.53
2023-03-10T05:36:46.513Z,13.54
2023-03-10T05:39:15.621Z,13.54
2023-03-10T05:41:42.330Z,13.63
2023-03-10T05:44:16.004Z,13.71
2023-03-10T05:46:42.795Z,13.70
2023-03-10T05:49:09.526Z,13.74
2023-03-10T05:51:36.157Z,13.79
2023-03-10T05:54:02.970Z,13.80
2023-03-10T05:56:29.952Z,13.83
2023-03-10T05:58:56.640Z,13.84
2023-03-10T06:01:23.312Z,13.68
2023-03-10T06:03:49.984Z,13.77
2023-03-10T06:06:16.712Z,13.78
2023-03-10T06:08:43.460Z,13.75
2023-03-10T06:11:10.181Z,13.83
2023-03-10T06:13:36.746Z,13.54
2023-03-10T06:16:06.712Z,13.58
2023-03-10T06:18:34.520Z,13.75
2023-03-10T06:21:05.187Z,13.71
2023-03-10T06:23:31.774Z,13.85
2023-03-10T06:26:00.890Z,14.03
2023-03-10T06:28:33.119Z,14.05
2023-03-10T06:31:02.226Z,14.08
2023-03-10T06:33:30.089Z,14.07
2023-03-10T06:35:57.117Z,14.18
2023-03-10T06:38:24.722Z,14.28
2023-03-10T06:40:51.487Z,14.32
2023-03-10T06:43:18.254Z,14.26
2023-03-10T06:45:46.281Z,14.23
2023-03-10T06:48:14.639Z,14.44
2023-03-10T06:50:48.092Z,14.25
2023-03-10T06:53:16.318Z,14.12
2023-03-10T06:55:43.006Z,14.22
2023-03-10T06:58:09.662Z,14.08
2023-03-10T07:00:36.361Z,14.31
2023-03-10T07:03:03.064Z,14.01
2023-03-10T07:05:29.670Z,13.21
2023-03-10T07:07:56.564Z,14.02
2023-03-10T07:10:23.479Z,13.78
2023-03-10T07:12:55.212Z,14.11
2023-03-10T07:15:25.705Z,14.39
2023-03-10T07:17:52.794Z,14.15
2023-03-10T07:20:19.484Z,14.20
2023-03-10T07:22:46.080Z,14.42
2023-03-10T07:25:12.736Z,14.27
2023-03-10T07:27:39.463Z,13.35
2023-03-10T07:30:07.461Z,13.92
2023-03-10T07:32:34.642Z,14.39
2023-03-10T07:35:02.185Z,14.48
2023-03-10T07:37:28.775Z,14.62
2023-03-10T07:39:55.522Z,13.95
2023-03-10T07:42:22.497Z,13.84
2023-03-10T07:44:49.423Z,14.20
2023-03-10T07:47:16.085Z,14.25
2023-03-10T07:49:46.882Z,14.70
2023-03-10T07:52:15.470Z,14.98
2023-03-10T07:54:44.273Z,14.41
2023-03-10T07:57:12.507Z,15.04
2023-03-10T07:59:39.165Z,14.93
2023-03-10T08:02:06.430Z,15.08
2023-03-10T08:04:33.774Z,13.59
2023-03-10T08:07:02.336Z,14.07
2023-03-10T08:09:29.994Z,14.09
2023-03-10T08:11:58.887Z,14.62
2023-03-10T08:14:27.355Z,15.07
2023-03-10T08:16:56.580Z,15.45
2023-03-10T08:19:24.702Z,14.77
2023-03-10T08:21:52.154Z,15.15
2023-03-10T08:24:18.923Z,13.79
2023-03-10T08:26:45.529Z,14.90
2023-03-10T08:29:12.217Z,14.64
2023-03-10T08:31:39.016Z,14.89
2023-03-10T08:34:05.645Z,14.43
2023-03-10T08:36:32.612Z,13.79
2023-03-10T08:39:05.580Z,15.02
2023-03-10T08:41:38.876Z,15.28
2023-03-10T08:44:06.487Z,15.59
2023-03-10T08:46:33.703Z,15.37
2023-03-10T08:49:01.051Z,15.31
2023-03-10T08:51:28.573Z,15.96
2023-03-10T08:53:55.360Z,15.32
2023-03-10T08:56:23.702Z,15.48
2023-03-10T08:58:50.696Z,15.65
2023-03-10T09:01:18.021Z,16.31
2023-03-10T09:03:45.668Z,14.98
2023-03-10T09:06:13.745Z,15.29
2023-03-10T09:08:41.371Z,15.57
2023-03-10T09:11:09.794Z,15.74
2023-03-10T09:13:36.433Z,14.91
2023-03-10T09:16:03.118Z,15.88
2023-03-10T09:18:30.054Z,15.05
2023-03-10T09:20:56.970Z,14.91
2023-03-10T09:23:23.724Z,15.41
2023-03-10T09:25:50.374Z,16.31
2023-03-10T09:28:18.753Z,15.42
2023-03-10T09:30:46.434Z,16.50
2023-03-10T09:33:19.045Z,16.47
2023-03-10T09:35:52.884Z,15.93
2023-03-10T09:38:29.972Z,16.15
2023-03-10T09:41:24.242Z,15.85
2023-03-10T09:44:07.703Z,15.89
2023-03-10T09:47:02.249Z,16.36
2023-03-10T09:49:39.169Z,16.56
2023-03-10T09:52:23.920Z,16.29
2023-03-10T09:55:00.216Z,16.18
2023-03-10T09:57:27.998Z,16.45
2023-03-10T10:00:00.600Z,16.15
2023-03-10T10:02:35.403Z,16.08
2023-03-10T10:05:12.665Z,15.70
2023-03-10T10:07:52.808Z,15.56
2023-03-10T10:10:32.830Z,16.33
2023-03-10T10:13:07.577Z,16.42
2023-03-10T10:15:38.231Z,16.79
2023-03-10T10:18:26.986Z,16.30
2023-03-10T10:21:06.104Z,16.50
2023-03-10T10:23:47.190Z,16.62
2023-03-10T10:26:16.811Z,16.91
2023-03-10T10:28:50.737Z,16.66
2023-03-10T10:31:21.489Z,16.45
2023-03-10T10:34:21.579Z,17.03
2023-03-10T10:36:52.072Z,17.27
2023-03-10T10:39:41.551Z,17.36
2023-03-10T10:42:32.844Z,17.31
2023-03-10T10:45:19.242Z,17.14
2023-03-10T10:47:51.391Z,17.25
2023-03-10T10:50:26.831Z,17.18
2023-03-10T10:53:16.658Z,16.97
2023-03-10T10:55:45.755Z,16.84
2023-03-10T10:58:33.716Z,17.07
2023-03-10T11:01:03.771Z,17.11
2023-03-10T11:03:33.314Z,17.23
2023-03-10T11:06:02.229Z,16.27
2023-03-10T11:08:32.960Z,16.09
2023-03-10T11:11:16.829Z,15.96
2023-03-10T11:13:52.396Z,16.14
2023-03-10T11:16:27.950Z,16.20
2023-03-10T11:19:33.273Z,15.97
2023-03-10T11:22:07.264Z,16.05
2023-03-10T11:24:48.024Z,16.01
2023-03-10T11:27:17.172Z,16.31
2023-03-10T11:29:43.960Z,16.20
2023-03-10T11:32:24.211Z,15.56
2023-03-10T11:34:54.128Z,15.66
2023-03-10T11:37:25.007Z,15.39
2023-03-10T11:40:11.616Z,15.56
2023-03-10T11:42:44.721Z,14.75
2023-03-10T11:45:35.578Z,14.84
2023-03-10T11:48:04.938Z,15.13
2023-03-10T11:50:56.099Z,15.19
2023-03-10T11:53:28.725Z,15.03
2023-03-10T11:55:58.225Z,14.89
2023-03-10T11:58:32.583Z,15.39
2023-03-10T12:01:00.632Z,15.64
2023-03-10T12:04:04.456Z,15.96
2023-03-10T12:06:53.110Z,16.14
2023-03-10T12:09:34.400Z,16.57
2023-03-10T12:12:04.040Z,16.35
2023-03-10T12:14:32.290Z,16.76
2023-03-10T12:17:00.775Z,17.00
2023-03-10T12:19:27.390Z,16.96
2023-03-10T12:22:24.946Z,16.13
2023-03-10T12:24:53.094Z,16.12
2023-03-10T12:27:19.812Z,16.01
2023-03-10T12:29:46.638Z,15.74
2023-03-10T12:32:43.744Z,15.10
2023-03-10T12:35:36.674Z,15.62
2023-03-10T12:38:28.741Z,16.08
2023-03-10T12:40:55.989Z,16.12
2023-03-10T12:43:47.364Z,16.09
2023-03-10T12:46:21.727Z,15.69
2023-03-10T12:49:02.935Z,16.39
2023-03-10T12:51:48.349Z,16.02
2023-03-10T12:54:44.404Z,15.88
2023-03-10T12:57:30.867Z,16.05
2023-03-10T13:00:28.384Z,16.13
2023-03-10T13:03:11.186Z,15.88
2023-03-10T13:05:41.894Z,15.78
2023-03-10T13:08:25.114Z,15.96
2023-03-10T13:10:56.456Z,16.49
2023-03-10T13:13:30.354Z,16.70
2023-03-10T13:15:59.808Z,17.01
2023-03-10T13:18:26.683Z,17.10
2023-03-10T13:20:53.393Z,16.42
2023-03-10T13:23:29.631Z,16.59
2023-03-10T13:26:02.259Z,15.95
2023-03-10T13:28:31.782Z,16.49
2023-03-10T13:31:19.815Z,16.60
2023-03-10T13:33:53.234Z,16.85
2023-03-10T13:36:35.495Z,16.37
2023-03-10T13:39:23.478Z,16.50
2023-03-10T13:41:54.359Z,16.62
2023-03-10T13:44:24.433Z,17.21
2023-03-10T13:46:53.834Z,16.82
2023-03-10T13:49:25.669Z,16.96
2023-03-10T13:52:00.716Z,16.67
2023-03-10T13:54:38.228Z,16.73
2023-03-10T13:57:26.649Z,15.09
2023-03-10T13:59:55.605Z,16.10
2023-03-10T14:02:33.318Z,16.93
2023-03-10T14:05:01.017Z,17.34
2023-03-10T14:07:29.085Z,16.34
2023-03-10T14:10:04.635Z,16.12
2023-03-10T14:12:52.707Z,16.67
2023-03-10T14:15:19.364Z,16.75
2023-03-10T14:18:07.853Z,16.41
2023-03-10T14:20:38.362Z,17.11
2023-03-10T14:23:21.524Z,17.29
2023-03-10T14:25:50.799Z,17.58
2023-03-10T14:28:30.790Z,17.38
2023-03-10T14:30:58.830Z,17.64
2023-03-10T14:33:25.495Z,17.46
2023-03-10T14:35:52.230Z,17.03
2023-03-10T14:38:18.907Z,17.35
2023-03-10T14:40:48.856Z,16.93
2023-03-10T14:43:22.046Z,17.07
2023-03-10T14:45:50.861Z,17.27
2023-03-10T14:48:20.282Z,16.54
2023-03-10T14:50:47.493Z,16.48
2023-03-10T14:53:20.169Z,16.33
2023-03-10T14:55:50.635Z,15.96
2023-03-10T14:58:22.326Z,16.45
2023-03-10T15:00:50.344Z,16.92
2023-03-10T15:03:17.405Z,16.20
2023-03-10T15:05:48.755Z,16.05
2023-03-10T15:08:17.061Z,16.45
2023-03-10T15:10:50.667Z,15.27
2023-03-10T15:13:18.806Z,14.38
2023-03-10T15:15:47.400Z,13.41
2023-03-10T15:18:19.757Z,12.76
2023-03-10T15:20:47.136Z,12.69
2023-03-10T15:23:17.576Z,12.81
2023-03-10T15:25:46.170Z,13.11
2023-03-10T15:28:13.406Z,13.92
2023-03-10T15:30:40.052Z,13.84
2023-03-10T15:33:06.691Z,14.12
2023-03-10T15:35:33.545Z,13.82
2023-03-10T15:38:00.197Z,14.42
2023-03-10T15:40:30.098Z,13.95
2023-03-10T15:42:58.330Z,13.97
2023-03-10T15:45:27.897Z,14.17
2023-03-10T15:47:54.633Z,14.26
2023-03-10T15:50:21.912Z,13.93
2023-03-10T15:52:50.727Z,13.54
2023-03-10T15:55:17.427Z,13.74
2023-03-10T15:57:45.073Z,13.74
2023-03-10T16:00:12.772Z,14.29
2023-03-10T16:02:39.538Z,14.32
2023-03-10T16:05:06.973Z,14.50
2023-03-10T16:07:33.729Z,13.70
2023-03-10T16:10:00.327Z,13.46
2023-03-10T16:12:27.465Z,13.81
2023-03-10T16:14:55.506Z,14.26
2023-03-10T16:17:23.250Z,13.66
2023-03-10T16:19:50.259Z,13.91
2023-03-10T16:22:17.184Z,14.00
2023-03-10T16:24:43.821Z,14.25
2023-03-10T16:27:10.591Z,14.39
2023-03-10T16:29:40.142Z,14.91
2023-03-10T16:32:10.255Z,15.14
2023-03-10T16:34:36.954Z,15.48
2023-03-10T16:37:04.008Z,14.88
2023-03-10T16:39:33.073Z,15.05
2023-03-10T16:42:03.330Z,14.64
2023-03-10T16:44:29.977Z,15.21
2023-03-10T16:46:56.612Z,15.55
2023-03-10T16:49:23.255Z,15.03
2023-03-10T16:51:49.818Z,14.51
2023-03-10T16:54:22.152Z,14.64
2023-03-10T16:56:51.165Z,14.55
2023-03-10T16:59:22.824Z,14.42
2023-03-10T17:01:50.199Z,14.78
2023-03-10T17:04:17.445Z,14.88
2023-03-10T17:06:44.894Z,14.84
2023-03-10T17:09:13.095Z,15.11
2023-03-10T17:11:44.051Z,15.02
2023-03-10T17:14:14.266Z,13.78
2023-03-10T17:16:41.777Z,14.12
2023-03-10T17:19:12.824Z,14.10
2023-03-10T17:21:44.069Z,13.96
2023-03-10T17:24:10.780Z,13.60
2023-03-10T17:26:37.361Z,14.27
2023-03-10T17:29:04.513Z,14.01
2023-03-10T17:31:31.619Z,14.32
2023-03-10T17:34:03.419Z,13.61
2023-03-10T17:36:30.679Z,14.36
2023-03-10T17:38:59.823Z,14.44
2023-03-10T17:41:27.196Z,14.44
2023-03-10T17:43:54.965Z,14.67
2023-03-10T17:46:24.445Z,14.60
2023-03-10T17:48:52.728Z,14.35
2023-03-10T17:51:25.129Z,14.29
2023-03-10T17:53:52.651Z,13.37
2023-03-10T17:56:19.906Z,13.06
2023-03-10T17:58:48.316Z,13.11
2023-03-10T18:01:27.398Z,12.74
2023-03-10T18:03:58.641Z,12.79
2023-03-10T18:06:28.602Z,13.51
2023-03-10T18:08:57.029Z,13.47
2023-03-10T18:11:24.539Z,13.70
2023-03-10T18:13:51.790Z,14.23
2023-03-10T18:16:21.514Z,14.54
2023-03-10T18:18:48.433Z,14.60
2023-03-10T18:21:16.688Z,14.22
2023-03-10T18:23:43.936Z,13.98
2023-03-10T18:26:12.986Z,14.04
2023-03-10T18:28:40.328Z,14.24
2023-03-10T18:31:17.853Z,14.51
2023-03-10T18:33:44.525Z,14.73
2023-03-10T18:36:13.774Z,13.90
2023-03-10T18:38:41.123Z,13.19
2023-03-10T18:41:07.933Z,13.03
2023-03-10T18:43:35.186Z,13.13
2023-03-10T18:46:02.243Z,13.47
2023-03-10T18:48:29.091Z,13.53
2023-03-10T18:50:58.377Z,12.85
2023-03-10T18:53:26.499Z,13.52
2023-03-10T18:55:53.667Z,14.07
2023-03-10T18:58:20.830Z,14.04
2023-03-10T19:00:47.968Z,14.35
2023-03-10T19:03:15.260Z,14.12
2023-03-10T19:05:42.471Z,13.98
2023-03-10T19:08:10.399Z,13.96
2023-03-10T19:10:39.338Z,13.90
2023-03-10T19:13:07.648Z,14.28
2023-03-10T19:15:36.647Z,14.51
2023-03-10T19:18:03.912Z,14.00
2023-03-10T19:20:30.865Z,14.30
2023-03-10T19:22:57.491Z,14.41
2023-03-10T19:25:24.286Z,14.52
2023-03-10T19:27:50.949Z,14.29
2023-03-10T19:30:22.628Z,14.62
2023-03-10T19:32:51.091Z,14.57
2023-03-10T19:35:20.385Z,14.78
2023-03-10T19:37:49.649Z,14.64
2023-03-10T19:40:19.770Z,14.52
2023-03-10T19:42:47.085Z,14.59
2023-03-10T19:45:17.228Z,14.40
2023-03-10T19:47:45.085Z,14.27
2023-03-10T19:50:14.622Z,14.12
2023-03-10T19:52:46.326Z,13.45
2023-03-10T19:55:16.912Z,13.80
2023-03-10T19:57:43.598Z,13.84
2023-03-10T20:00:13.947Z,13.50
2023-03-10T20:02:44.613Z,12.68
2023-03-10T20:05:14.111Z,13.10
2023-03-10T20:07:42.724Z,12.78
2023-03-10T20:10:09.929Z,12.59
2023-03-10T20:12:36.804Z,13.10
2023-03-10T20:15:06.944Z,13.22
2023-03-10T20:17:34.494Z,13.69
2023-03-10T20:20:01.185Z,13.29
2023-03-10T20:22:27.879Z,13.61
2023-03-10T20:24:54.520Z,12.73
2023-03-10T20:27:23.115Z,13.14
2023-03-10T20:29:49.958Z,13.69
2023-03-10T20:32:16.727Z,13.85
2023-03-10T20:34:43.309Z,12.94
2023-03-10T20:37:10.003Z,12.52
2023-03-10T20:39:36.594Z,12.33
2023-03-10T20:42:03.297Z,12.86
2023-03-10T20:44:29.913Z,13.51
2023-03-10T20:46:56.548Z,13.73
2023-03-10T20:49:23.139Z,13.50
2023-03-10T20:51:49.791Z,13.45
2023-03-10T20:54:16.487Z,13.53
2023-03-10T20:56:43.093Z,13.64
2023-03-10T20:59:10.587Z,13.36
2023-03-10T21:01:39.865Z,12.68
2023-03-10T21:04:06.792Z,13.16
2023-03-10T21:06:33.722Z,12.84
2023-03-10T21:09:05.859Z,13.29
2023-03-10T21:11:35.822Z,13.07
2023-03-10T21:14:02.423Z,13.20
2023-03-10T21:16:29.228Z,13.32
2023-03-10T21:18:55.984Z,13.73
2023-03-10T21:21:22.667Z,12.30
2023-03-10T21:23:49.984Z,13.17
2023-03-10T21:26:21.464Z,12.87
2023-03-10T21:28:48.463Z,13.11
2023-03-10T21:31:15.364Z,12.95
2023-03-10T21:33:42.091Z,12.76
2023-03-10T21:36:16.308Z,13.20
2023-03-10T21:38:43.446Z,13.54
2023-03-10T21:41:12.261Z,13.69
2023-03-10T21:43:38.850Z,13.46
2023-03-10T21:46:06.526Z,13.20
2023-03-10T21:48:33.252Z,12.48
2023-03-10T21:50:59.847Z,12.82
2023-03-10T21:53:26.864Z,12.59
2023-03-10T21:55:54.368Z,13.13
2023-03-10T21:58:23.561Z,13.24
2023-03-10T22:00:50.546Z,13.49
2023-03-10T22:03:22.130Z,12.99
2023-03-10T22:05:49.102Z,12.53
2023-03-10T22:08:15.848Z,12.41
2023-03-10T22:10:42.506Z,12.42
2023-03-10T22:13:09.237Z,11.83
2023-03-10T22:15:35.849Z,12.37
2023-03-10T22:18:02.579Z,12.57
2023-03-10T22:20:29.514Z,12.87
2023-03-10T22:22:57.260Z,13.47
2023-03-10T22:25:24.473Z,13.24
2023-03-10T22:27:54.546Z,13.57
2023-03-10T22:30:22.865Z,13.74
2023-03-10T22:32:49.882Z,13.14
2023-03-10T22:35:17.369Z,13.36
2023-03-10T22:37:44.137Z,12.83
2023-03-10T22:40:16.300Z,12.44
2023-03-10T22:42:44.611Z,13.23
2023-03-10T22:45:26.431Z,13.38
2023-03-10T22:47:56.286Z,13.03
2023-03-10T22:50:34.953Z,13.16
2023-03-10T22:53:03.471Z,13.75
2023-03-10T22:55:35.759Z,12.68
2023-03-10T22:58:07.465Z,13.37
2023-03-10T23:00:34.620Z,13.49
2023-03-10T23:03:01.812Z,13.79
2023-03-10T23:05:28.593Z,13.86
2023-03-10T23:07:55.450Z,14.06
2023-03-10T23:10:27.535Z,13.40
2023-03-10T23:12:55.228Z,13.75
2023-03-10T23:15:27.425Z,12.81
2023-03-10T23:17:55.351Z,13.35
2023-03-10T23:20:27.078Z,13.85
2023-03-10T23:22:55.086Z,14.04
2023-03-10T23:25:29.183Z,13.43
2023-03-10T23:27:56.962Z,13.31
2023-03-10T23:30:23.964Z,13.37
2023-03-10T23:32:51.554Z,13.43
2023-03-10T23:35:21.727Z,13.30
2023-03-10T23:37:48.354Z,13.87
2023-03-10T23:40:18.960Z,13.95
2023-03-10T23:42:46.200Z,13.93
2023-03-10T23:45:16.650Z,13.41
2023-03-10T23:47:44.794Z,13.61
2023-03-10T23:50:17.983Z,12.10
2023-03-10T23:52:45.035Z,12.54
2023-03-10T23:55:15.731Z,12.15
2023-03-10T23:57:42.378Z,12.25
